Andes — 5BFM3 — position and weather

sailwx.info

Track history (hours):
 
Tides and Currents Weather Stations Pressure Air Temp Water Temp Dewpoint Dewpoint Depression Visibility Wind Speed Wind Dir Waves Ship Positions

Andes

Last reported at 2014-Jul-01 23:21 UTC. Time now 2014-Jul-23 15:31 UTC.
Position N 37°42' W 035°16'.
Warning: this ship's position is 21 days out of date.

; draft 11.3 m.

Type: Ship. MMSI: 209394000.

Date/timePositionNaut miles runAvg speedWind from/ knotsBaromVisibWave heightAir tempDewpointWater temp
2014-Jul-01 23:21N 37°42' W 035°16'29213.9
2014-Jul-01 02:23N 40°25' W 030°03'1113.5
2014-Jul-01 01:34N 40°30' W 029°50'1313.3
2014-Jul-01 00:33N 40°36' W 029°35'1313.3
2014-Jun-30 23:34N 40°43' W 029°20'1313.4
2014-Jun-30 22:34N 40°49' W 029°04'1313.4
2014-Jun-30 21:33N 40°55' W 028°48'1913.4
2014-Jun-30 20:08N 41°05' W 028°26'1013.9
2014-Jun-30 19:25N 41°09' W 028°15'  
2014-Jun-26 21:32N 50°12' W 001°41'1010.0
2014-Jun-26 20:33N 50°15' W 001°26'9 9.3
2014-Jun-26 19:33N 50°17' W 001°12'9 9.4
2014-Jun-26 18:33N 50°20' W 000°58'1111.1
2014-Jun-26 17:33N 50°23' W 000°41'1212.5
2014-Jun-26 16:33N 50°26' W 000°22'1413.6
2014-Jun-26 15:34N 50°30' W 000°02'1414.1
2014-Jun-26 14:33N 50°34' E 000°20'1313.5
2014-Jun-26 13:33N 50°39' E 000°39'1312.7
2014-Jun-26 12:33N 50°47' E 000°55'1211.6
2014-Jun-26 11:33N 50°54' E 001°09'1110.8
2014-Jun-26 10:33N 51°01' E 001°22'1211.9
2014-Jun-26 09:33N 51°09' E 001°37'1313.3
2014-Jun-26 08:33N 51°19' E 001°50'1514.8
2014-Jun-26 07:33N 51°32' E 002°03'1514.6
2014-Jun-26 06:33N 51°43' E 002°18'7511.8
2014-Jun-26 00:15N 52°31' E 003°51'912.2
2014-Jun-25 23:33N 52°31' E 004°05'1212.3
2014-Jun-25 22:33N 52°29' E 004°25'7 7.5
2014-Jun-25 21:33N 52°28' E 004°37'3 2.9
2014-Jun-25 20:33N 52°27' E 004°41'4 4.2
2014-Jun-25 19:31N 52°24' E 004°46'0 0.0
2014-Jun-25 18:28N 52°24' E 004°46'0 0.0
2014-Jun-25 17:28N 52°24' E 004°46'0 0.0
2014-Jun-25 16:25N 52°24' E 004°46'0 0.0
2014-Jun-25 15:10N 52°24' E 004°46'0 0.0
2014-Jun-25 14:28N 52°24' E 004°46'0 0.0
2014-Jun-25 13:25N 52°24' E 004°46'0 0.0
2014-Jun-25 12:31N 52°24' E 004°46'0 0.0
2014-Jun-25 11:07N 52°24' E 004°46'0 0.0
2014-Jun-25 10:25N 52°24' E 004°46'0 0.0
2014-Jun-25 09:31N 52°24' E 004°46'0 0.0
2014-Jun-25 08:25N 52°24' E 004°46'0 0.0
2014-Jun-25 07:31N 52°24' E 004°46'0 0.0
2014-Jun-25 06:31N 52°24' E 004°46'0 0.0
2014-Jun-25 05:28N 52°24' E 004°46'0 0.0
2014-Jun-25 04:28N 52°24' E 004°46'0 0.0
2014-Jun-25 03:25N 52°24' E 004°46'0 0.0
2014-Jun-25 02:28N 52°24' E 004°46'0 0.0
2014-Jun-25 01:19N 52°24' E 004°46'0 0.0
2014-Jun-25 00:31N 52°24' E 004°46'0 0.0
2014-Jun-24 23:31N 52°24' E 004°46'0 0.0
2014-Jun-24 22:28N 52°24' E 004°46'0 0.0
2014-Jun-24 21:31N 52°24' E 004°46'0 0.0
2014-Jun-24 20:28N 52°24' E 004°46'0 0.0
2014-Jun-24 19:25N 52°24' E 004°46'0 0.0
2014-Jun-24 18:31N 52°24' E 004°46'0 0.0
2014-Jun-24 17:22N 52°24' E 004°46'0 0.0
2014-Jun-24 16:31N 52°24' E 004°46'0 0.0
2014-Jun-24 15:31N 52°24' E 004°46'0 0.0
2014-Jun-24 14:25N 52°24' E 004°46'0 0.0
2014-Jun-24 13:28N 52°24' E 004°46'0 0.0
2014-Jun-24 12:10N 52°24' E 004°46'0 0.0
2014-Jun-24 11:28N 52°24' E 004°46'0 0.0
2014-Jun-24 10:22N 52°24' E 004°46'0 0.0
2014-Jun-24 09:31N 52°24' E 004°46'0 0.0
2014-Jun-24 07:25N 52°24' E 004°46'0 0.0
2014-Jun-24 06:28N 52°24' E 004°46'0 0.0
2014-Jun-24 05:31N 52°24' E 004°46'0 0.0
2014-Jun-24 04:31N 52°24' E 004°46'0 0.0
2014-Jun-24 03:31N 52°24' E 004°46'0 0.0
2014-Jun-24 02:31N 52°24' E 004°46'0 0.0
2014-Jun-24 01:31N 52°24' E 004°46'0 0.0
2014-Jun-24 00:22N 52°24' E 004°46'0 0.0
2014-Jun-23 23:22N 52°24' E 004°46'0 0.0
2014-Jun-23 22:31N 52°24' E 004°46'0 0.0
2014-Jun-23 21:31N 52°24' E 004°46'0 0.0
2014-Jun-23 20:31N 52°24' E 004°46'0 0.0
2014-Jun-23 19:31N 52°24' E 004°46'0 0.0
2014-Jun-23 18:22N 52°24' E 004°46'0 0.0
2014-Jun-23 17:31N 52°24' E 004°46'0 0.0
2014-Jun-23 16:28N 52°24' E 004°46'0 0.0
2014-Jun-23 15:31N 52°24' E 004°46'0 0.0
2014-Jun-23 14:25N 52°24' E 004°46'0 0.0
2014-Jun-23 12:28N 52°24' E 004°46'0 0.0
2014-Jun-23 11:31N 52°24' E 004°46'0 0.0
2014-Jun-23 10:31N 52°24' E 004°46'0 0.0
2014-Jun-23 09:31N 52°24' E 004°46'0 0.0
2014-Jun-23 08:31N 52°24' E 004°46'0 0.0
2014-Jun-23 07:31N 52°24' E 004°46'0 0.0
2014-Jun-23 06:31N 52°24' E 004°46'0 0.0
2014-Jun-23 05:28N 52°24' E 004°46'0 0.0
2014-Jun-23 04:31N 52°24' E 004°46'0 0.0
2014-Jun-23 03:28N 52°24' E 004°46'0 0.0
2014-Jun-23 02:31N 52°24' E 004°46'0 0.0
2014-Jun-23 01:31N 52°24' E 004°46'0 0.0
2014-Jun-23 00:31N 52°24' E 004°46'0 0.0
2014-Jun-22 23:28N 52°24' E 004°46'0 0.0
2014-Jun-22 22:31N 52°24' E 004°46'0 0.0
2014-Jun-22 21:31N 52°24' E 004°46'0 0.0
2014-Jun-22 20:28N 52°24' E 004°46'0 0.0
2014-Jun-22 19:31N 52°24' E 004°46'0 0.0
2014-Jun-22 18:31N 52°24' E 004°46'0 0.0
2014-Jun-22 17:28N 52°24' E 004°46'0 0.0
2014-Jun-22 16:31N 52°24' E 004°46'0 0.0
2014-Jun-22 15:31N 52°24' E 004°46'0 0.0
2014-Jun-22 14:31N 52°24' E 004°46'0 0.0
2014-Jun-22 13:19N 52°24' E 004°46'0 0.0
2014-Jun-22 12:31N 52°24' E 004°46'0 0.0
2014-Jun-22 11:31N 52°24' E 004°46'0 0.0
2014-Jun-22 10:31N 52°24' E 004°46'0 0.0
2014-Jun-22 09:25N 52°24' E 004°46'0 0.0
2014-Jun-22 08:31N 52°24' E 004°46'0 0.0
2014-Jun-22 07:22N 52°24' E 004°46'0 0.0
2014-Jun-22 06:28N 52°24' E 004°46'0 0.0
2014-Jun-22 05:31N 52°24' E 004°46'0 0.0
2014-Jun-22 04:31N 52°24' E 004°46'0 0.0
2014-Jun-22 03:28N 52°24' E 004°46'0 0.0
2014-Jun-22 02:31N 52°24' E 004°46'0 0.0
2014-Jun-22 01:31N 52°24' E 004°46'0 0.0
2014-Jun-22 00:31N 52°24' E 004°46'0 0.0
2014-Jun-21 23:25N 52°24' E 004°46'  
Track history (hours):
 
Tides and Currents Weather Stations Pressure Air Temp Water Temp Dewpoint Dewpoint Depression Visibility Wind Speed Wind Dir Waves Ship Positions

Andes

Last reported at 2014-Jul-01 23:21 UTC. Time now 2014-Jul-23 15:31 UTC.
Position N 37°42' W 035°16'.
Warning: this ship's position is 21 days out of date.

; draft 11.3 m.

Type: Ship. MMSI: 209394000.

Date/timePositionNaut miles runAvg speedWind from/ knotsBaromVisibWave heightAir tempDewpointWater temp
2014-Jul-01 23:21N 37°42' W 035°16'29213.9
2014-Jul-01 02:23N 40°25' W 030°03'1113.5
2014-Jul-01 01:34N 40°30' W 029°50'1313.3
2014-Jul-01 00:33N 40°36' W 029°35'1313.3
2014-Jun-30 23:34N 40°43' W 029°20'1313.4
2014-Jun-30 22:34N 40°49' W 029°04'1313.4
2014-Jun-30 21:33N 40°55' W 028°48'1913.4
2014-Jun-30 20:08N 41°05' W 028°26'1013.9
2014-Jun-30 19:25N 41°09' W 028°15'  
2014-Jun-26 21:32N 50°12' W 001°41'1010.0
2014-Jun-26 20:33N 50°15' W 001°26'9 9.3
2014-Jun-26 19:33N 50°17' W 001°12'9 9.4
2014-Jun-26 18:33N 50°20' W 000°58'1111.1
2014-Jun-26 17:33N 50°23' W 000°41'1212.5
2014-Jun-26 16:33N 50°26' W 000°22'1413.6
2014-Jun-26 15:34N 50°30' W 000°02'1414.1
2014-Jun-26 14:33N 50°34' E 000°20'1313.5
2014-Jun-26 13:33N 50°39' E 000°39'1312.7
2014-Jun-26 12:33N 50°47' E 000°55'1211.6
2014-Jun-26 11:33N 50°54' E 001°09'1110.8
2014-Jun-26 10:33N 51°01' E 001°22'1211.9
2014-Jun-26 09:33N 51°09' E 001°37'1313.3
2014-Jun-26 08:33N 51°19' E 001°50'1514.8
2014-Jun-26 07:33N 51°32' E 002°03'1514.6
2014-Jun-26 06:33N 51°43' E 002°18'7511.8
2014-Jun-26 00:15N 52°31' E 003°51'912.2
2014-Jun-25 23:33N 52°31' E 004°05'1212.3
2014-Jun-25 22:33N 52°29' E 004°25'7 7.5
2014-Jun-25 21:33N 52°28' E 004°37'3 2.9
2014-Jun-25 20:33N 52°27' E 004°41'4 4.2
2014-Jun-25 19:31N 52°24' E 004°46'0 0.0
2014-Jun-25 18:28N 52°24' E 004°46'0 0.0
2014-Jun-25 17:28N 52°24' E 004°46'0 0.0
2014-Jun-25 16:25N 52°24' E 004°46'0 0.0
2014-Jun-25 15:10N 52°24' E 004°46'0 0.0
2014-Jun-25 14:28N 52°24' E 004°46'0 0.0
2014-Jun-25 13:25N 52°24' E 004°46'0 0.0
2014-Jun-25 12:31N 52°24' E 004°46'0 0.0
2014-Jun-25 11:07N 52°24' E 004°46'0 0.0
2014-Jun-25 10:25N 52°24' E 004°46'0 0.0
2014-Jun-25 09:31N 52°24' E 004°46'0 0.0
2014-Jun-25 08:25N 52°24' E 004°46'0 0.0
2014-Jun-25 07:31N 52°24' E 004°46'0 0.0
2014-Jun-25 06:31N 52°24' E 004°46'0 0.0
2014-Jun-25 05:28N 52°24' E 004°46'0 0.0
2014-Jun-25 04:28N 52°24' E 004°46'0 0.0
2014-Jun-25 03:25N 52°24' E 004°46'0 0.0
2014-Jun-25 02:28N 52°24' E 004°46'0 0.0
2014-Jun-25 01:19N 52°24' E 004°46'0 0.0
2014-Jun-25 00:31N 52°24' E 004°46'0 0.0
2014-Jun-24 23:31N 52°24' E 004°46'0 0.0
2014-Jun-24 22:28N 52°24' E 004°46'0 0.0
2014-Jun-24 21:31N 52°24' E 004°46'0 0.0
2014-Jun-24 20:28N 52°24' E 004°46'0 0.0
2014-Jun-24 19:25N 52°24' E 004°46'0 0.0
2014-Jun-24 18:31N 52°24' E 004°46'0 0.0
2014-Jun-24 17:22N 52°24' E 004°46'0 0.0
2014-Jun-24 16:31N 52°24' E 004°46'0 0.0
2014-Jun-24 15:31N 52°24' E 004°46'0 0.0
2014-Jun-24 14:25N 52°24' E 004°46'0 0.0
2014-Jun-24 13:28N 52°24' E 004°46'0 0.0
2014-Jun-24 12:10N 52°24' E 004°46'0 0.0
2014-Jun-24 11:28N 52°24' E 004°46'0 0.0
2014-Jun-24 10:22N 52°24' E 004°46'0 0.0
2014-Jun-24 09:31N 52°24' E 004°46'0 0.0
2014-Jun-24 07:25N 52°24' E 004°46'0 0.0
2014-Jun-24 06:28N 52°24' E 004°46'0 0.0
2014-Jun-24 05:31N 52°24' E 004°46'0 0.0
2014-Jun-24 04:31N 52°24' E 004°46'0 0.0
2014-Jun-24 03:31N 52°24' E 004°46'0 0.0
2014-Jun-24 02:31N 52°24' E 004°46'0 0.0
2014-Jun-24 01:31N 52°24' E 004°46'0 0.0
2014-Jun-24 00:22N 52°24' E 004°46'0 0.0
2014-Jun-23 23:22N 52°24' E 004°46'0 0.0
2014-Jun-23 22:31N 52°24' E 004°46'0 0.0
2014-Jun-23 21:31N 52°24' E 004°46'0 0.0
2014-Jun-23 20:31N 52°24' E 004°46'0 0.0
2014-Jun-23 19:31N 52°24' E 004°46'0 0.0
2014-Jun-23 18:22N 52°24' E 004°46'0 0.0
2014-Jun-23 17:31N 52°24' E 004°46'0 0.0
2014-Jun-23 16:28N 52°24' E 004°46'0 0.0
2014-Jun-23 15:31N 52°24' E 004°46'0 0.0
2014-Jun-23 14:25N 52°24' E 004°46'0 0.0
2014-Jun-23 12:28N 52°24' E 004°46'0 0.0
2014-Jun-23 11:31N 52°24' E 004°46'0 0.0
2014-Jun-23 10:31N 52°24' E 004°46'0 0.0
2014-Jun-23 09:31N 52°24' E 004°46'0 0.0
2014-Jun-23 08:31N 52°24' E 004°46'0 0.0
2014-Jun-23 07:31N 52°24' E 004°46'0 0.0
2014-Jun-23 06:31N 52°24' E 004°46'0 0.0
2014-Jun-23 05:28N 52°24' E 004°46'0 0.0
2014-Jun-23 04:31N 52°24' E 004°46'0 0.0
2014-Jun-23 03:28N 52°24' E 004°46'0 0.0
2014-Jun-23 02:31N 52°24' E 004°46'0 0.0
2014-Jun-23 01:31N 52°24' E 004°46'0 0.0
2014-Jun-23 00:31N 52°24' E 004°46'0 0.0
2014-Jun-22 23:28N 52°24' E 004°46'0 0.0
2014-Jun-22 22:31N 52°24' E 004°46'0 0.0
2014-Jun-22 21:31N 52°24' E 004°46'0 0.0
2014-Jun-22 20:28N 52°24' E 004°46'0 0.0
2014-Jun-22 19:31N 52°24' E 004°46'0 0.0
2014-Jun-22 18:31N 52°24' E 004°46'0 0.0
2014-Jun-22 17:28N 52°24' E 004°46'0 0.0
2014-Jun-22 16:31N 52°24' E 004°46'0 0.0
2014-Jun-22 15:31N 52°24' E 004°46'0 0.0
2014-Jun-22 14:31N 52°24' E 004°46'0 0.0
2014-Jun-22 13:19N 52°24' E 004°46'0 0.0
2014-Jun-22 12:31N 52°24' E 004°46'0 0.0
2014-Jun-22 11:31N 52°24' E 004°46'0 0.0
2014-Jun-22 10:31N 52°24' E 004°46'0 0.0
2014-Jun-22 09:25N 52°24' E 004°46'0 0.0
2014-Jun-22 08:31N 52°24' E 004°46'0 0.0
2014-Jun-22 07:22N 52°24' E 004°46'0 0.0
2014-Jun-22 06:28N 52°24' E 004°46'0 0.0
2014-Jun-22 05:31N 52°24' E 004°46'0 0.0
2014-Jun-22 04:31N 52°24' E 004°46'0 0.0
2014-Jun-22 03:28N 52°24' E 004°46'0 0.0
2014-Jun-22 02:31N 52°24' E 004°46'0 0.0
2014-Jun-22 01:31N 52°24' E 004°46'0 0.0
2014-Jun-22 00:31N 52°24' E 004°46'0 0.0
2014-Jun-21 23:25N 52°24' E 004°46'  

Dump ship's entire track history